Time,TemperatureF,DewpointF,PressureIn,WindDirection,WindDirectionDegrees,WindSpeedMPH,WindSpeedGustMPH,Humidity,HourlyPrecipIn,Conditions,Clouds,dailyrainin,SoftwareType,DateUTC
2014-03-23 00:04:00,34.3,-0.6,28.20,NNW,345,3.0,6.0,22,0.00,CLR,,0.00,WeatherDisplay:10.37,2014-03-23 04:04:00,
2014-03-23 00:09:00,34.2,-0.8,28.20,NNW,348,3.0,7.0,22,0.00,CLR,,0.00,WeatherDisplay:10.37,2014-03-23 04:09:00,
2014-03-23 00:14:00,34.0,-1.0,28.20,North,352,2.0,6.0,22,0.00,CLR,,0.00,WeatherDisplay:10.37,2014-03-23 04:14:00,
2014-03-23 00:19:00,33.8,-1.1,28.20,North,353,5.0,7.0,22,0.00,CLR,,0.00,WeatherDisplay:10.37,2014-03-23 04:19:00,
2014-03-23 00:24:00,33.8,-1.1,28.20,North,349,3.0,6.0,22,0.00,CLR,,0.00,WeatherDisplay:10.37,2014-03-23 04:24:00,
2014-03-23 00:30:00,33.7,-0.2,28.20,North,353,2.0,6.0,23,0.00,CLR,,0.00,WeatherDisplay:10.37,2014-03-23 04:30:00,
2014-03-23 00:34:00,33.6,-0.3,28.20,North,357,0.0,4.0,23,0.00,CLR,,0.00,WeatherDisplay:10.37,2014-03-23 04:34:00,
2014-03-23 00:39:00,33.6,-0.3,28.20,North,1,0.0,5.0,23,0.00,CLR,,0.00,WeatherDisplay:10.37,2014-03-23 04:39:00,
2014-03-23 00:45:00,33.4,-0.5,28.20,North,0,0.0,4.0,23,0.00,CLR,,0.00,WeatherDisplay:10.37,2014-03-23 04:45:00,
2014-03-23 00:54:00,33.1,-0.8,28.20,NNW,348,5.0,6.0,23,0.00,CLR,,0.00,WeatherDisplay:10.37,2014-03-23 04:54:00,
2014-03-23 00:59:00,33.0,-0.9,28.20,North,352,2.0,6.0,23,0.00,CLR,,0.00,WeatherDisplay:10.37,2014-03-23 04:59:00,
2014-03-23 01:05:00,32.7,-1.1,28.20,North,358,0.0,3.0,23,0.00,CLR,,0.00,WeatherDisplay:10.37,2014-03-23 05:05:00,
2014-03-23 01:10:00,32.5,-1.2,28.20,North,1,0.0,4.0,23,0.00,CLR,,0.00,WeatherDisplay:10.37,2014-03-23 05:10:00,
2014-03-23 01:15:00,32.5,-1.2,28.20,North,1,0.0,3.0,23,0.00,CLR,,0.00,WeatherDisplay:10.37,2014-03-23 05:15:00,
2014-03-23 01:24:00,32.2,-1.5,28.20,North,355,0.0,4.0,23,0.00,CLR,,0.00,WeatherDisplay:10.37,2014-03-23 05:24:00,
2014-03-23 01:29:00,31.8,-1.8,28.20,NNW,340,0.0,3.0,23,0.00,CLR,,0.00,WeatherDisplay:10.37,2014-03-23 05:29:00,
2014-03-23 01:35:00,31.4,-2.2,28.20,NNW,335,0.0,3.0,23,0.00,CLR,,0.00,WeatherDisplay:10.37,2014-03-23 05:35:00,
2014-03-23 01:39:00,31.1,-2.5,28.20,NNW,336,0.0,4.0,23,0.00,CLR,,0.00,WeatherDisplay:10.37,2014-03-23 05:39:00,
2014-03-23 01:44:00,31.1,-2.5,28.20,NNW,337,0.0,4.0,23,0.00,CLR,,0.00,WeatherDisplay:10.37,2014-03-23 05:44:00,
2014-03-23 01:54:00,30.6,-2.9,28.20,NNW,330,0.0,3.0,23,0.00,CLR,,0.00,WeatherDisplay:10.37,2014-03-23 05:54:00,
2014-03-23 02:00:00,30.6,-2.9,28.20,NNW,332,0.0,3.0,23,0.00,CLR,,0.00,WeatherDisplay:10.37,2014-03-23 06:00:00,
2014-03-23 02:05:00,30.5,-2.9,28.20,NNW,332,0.0,0.0,23,0.00,CLR,,0.00,WeatherDisplay:10.37,2014-03-23 06:05:00,
2014-03-23 02:10:00,30.4,-3.1,28.20,NNW,332,0.0,0.0,23,0.00,CLR,,0.00,WeatherDisplay:10.37,2014-03-23 06:10:00,
2014-03-23 02:15:00,30.2,-3.2,28.20,NNW,332,0.0,0.0,23,0.00,CLR,,0.00,WeatherDisplay:10.37,2014-03-23 06:15:00,
2014-03-23 02:20:00,29.9,-3.4,28.20,NNW,332,0.0,0.0,23,0.00,CLR,,0.00,WeatherDisplay:10.37,2014-03-23 06:20:00,
2014-03-23 02:25:00,29.7,-3.7,28.20,NNW,332,0.0,0.0,23,0.00,CLR,,0.00,WeatherDisplay:10.37,2014-03-23 06:25:00,
2014-03-23 02:29:00,29.4,-3.9,28.20,NNW,332,0.0,0.0,23,0.00,CLR,,0.00,WeatherDisplay:10.37,2014-03-23 06:29:00,
2014-03-23 02:34:00,29.1,-4.2,28.20,NNW,332,0.0,0.0,23,0.00,CLR,,0.00,WeatherDisplay:10.37,2014-03-23 06:34:00,
2014-03-23 02:40:00,28.8,-4.5,28.20,NNW,332,0.0,0.0,23,0.00,CLR,,0.00,WeatherDisplay:10.37,2014-03-23 06:40:00,
2014-03-23 02:50:00,28.8,-4.5,28.20,NNW,332,0.0,3.0,23,0.00,CLR,,0.00,WeatherDisplay:10.37,2014-03-23 06:50:00,
2014-03-23 02:55:00,28.8,-4.5,28.20,NNW,335,0.0,5.0,23,0.00,CLR,,0.00,WeatherDisplay:10.37,2014-03-23 06:55:00,
2014-03-23 03:04:00,28.8,-4.5,28.20,NNW,342,0.0,0.0,23,0.00,CLR,,0.00,WeatherDisplay:10.37,2014-03-23 07:04:00,
2014-03-23 03:10:00,28.9,-4.3,28.20,NNW,342,0.0,0.0,23,0.00,CLR,,0.00,WeatherDisplay:10.37,2014-03-23 07:10:00,
2014-03-23 03:19:00,29.3,-4.0,28.20,NNW,346,0.0,5.0,23,0.00,CLR,,0.00,WeatherDisplay:10.37,2014-03-23 07:19:00,
2014-03-23 03:24:00,29.1,-4.1,28.20,NNE,22,0.0,6.0,23,0.00,CLR,,0.00,WeatherDisplay:10.37,2014-03-23 07:24:00,
2014-03-23 03:29:00,28.8,-4.4,28.20,NNE,30,0.0,6.0,23,0.00,CLR,,0.00,WeatherDisplay:10.37,2014-03-23 07:29:00,
2014-03-23 03:35:00,28.6,-4.6,28.20,NNE,26,0.0,2.0,23,0.00,CLR,,0.00,WeatherDisplay:10.37,2014-03-23 07:35:00,
2014-03-23 03:40:00,28.3,-4.8,28.20,NNE,28,0.0,0.0,23,0.00,CLR,,0.00,WeatherDisplay:10.37,2014-03-23 07:40:00,
2014-03-23 03:44:00,27.9,-5.2,28.20,NNE,28,0.0,3.0,23,0.00,CLR,,0.00,WeatherDisplay:10.37,2014-03-23 07:44:00,
2014-03-23 03:50:00,27.9,-5.2,28.20,NNE,28,0.0,2.0,23,0.00,CLR,,0.00,WeatherDisplay:10.37,2014-03-23 07:50:00,
2014-03-23 04:00:00,28.0,-5.1,28.23,NNE,28,0.0,3.0,23,0.00,CLR,,0.00,WeatherDisplay:10.37,2014-03-23 08:00:00,
2014-03-23 04:04:00,27.9,-5.2,28.23,NNE,28,2.0,4.0,23,0.00,CLR,,0.00,WeatherDisplay:10.37,2014-03-23 08:04:00,
2014-03-23 04:15:00,27.1,-5.8,28.23,NNW,345,0.0,4.0,23,0.00,CLR,,0.00,WeatherDisplay:10.37,2014-03-23 08:15:00,
2014-03-23 04:19:00,27.0,-6.0,28.23,NNW,345,0.0,6.0,23,0.00,CLR,,0.00,WeatherDisplay:10.37,2014-03-23 08:19:00,
2014-03-23 04:30:00,27.0,-6.0,28.20,NNW,345,0.0,4.0,23,0.00,CLR,,0.00,WeatherDisplay:10.37,2014-03-23 08:30:00,
2014-03-23 04:39:00,26.8,-6.1,28.20,NNW,345,0.0,3.0,23,0.00,CLR,,0.00,WeatherDisplay:10.37,2014-03-23 08:39:00,
2014-03-23 04:50:00,26.6,-5.4,28.23,NNW,345,1.0,4.0,24,0.00,CLR,,0.00,WeatherDisplay:10.37,2014-03-23 08:50:00,
2014-03-23 04:59:00,26.8,-6.1,28.23,NNW,345,1.0,4.0,23,0.00,CLR,,0.00,WeatherDisplay:10.37,2014-03-23 08:59:00,
2014-03-23 05:09:00,27.0,-6.0,28.23,NNW,345,1.0,4.0,23,0.00,CLR,,0.00,WeatherDisplay:10.37,2014-03-23 09:09:00,
2014-03-23 05:19:00,27.0,-6.0,28.23,NNW,345,0.0,0.0,23,0.00,CLR,,0.00,WeatherDisplay:10.37,2014-03-23 09:19:00,
2014-03-23 05:30:00,27.0,-6.0,28.23,NNW,345,0.0,4.0,23,0.00,CLR,,0.00,WeatherDisplay:10.37,2014-03-23 09:30:00,
2014-03-23 05:40:00,27.0,-6.0,28.23,NNW,345,0.0,4.0,23,0.00,CLR,,0.00,WeatherDisplay:10.37,2014-03-23 09:40:00,
2014-03-23 05:50:00,27.1,-5.8,28.23,NNW,345,0.0,0.0,23,0.00,CLR,,0.00,WeatherDisplay:10.37,2014-03-23 09:50:00,
2014-03-23 06:00:00,27.0,-6.0,28.23,NNW,345,2.0,6.0,23,0.00,CLR,,0.00,WeatherDisplay:10.37,2014-03-23 10:00:00,
2014-03-23 06:09:00,26.8,-6.1,28.23,NNW,345,3.0,6.0,23,0.00,CLR,,0.00,WeatherDisplay:10.37,2014-03-23 10:09:00,
2014-03-23 06:20:00,26.4,-5.6,28.23,NNW,343,1.0,5.0,24,0.00,CLR,,0.00,WeatherDisplay:10.37,2014-03-23 10:20:00,
2014-03-23 06:30:00,26.1,-5.9,28.26,NNW,341,0.0,4.0,24,0.00,CLR,,0.00,WeatherDisplay:10.37,2014-03-23 10:30:00,
2014-03-23 06:34:00,26.1,-5.9,28.26,NNW,341,0.0,3.0,24,0.00,CLR,,0.00,WeatherDisplay:10.37,2014-03-23 10:34:00,
2014-03-23 06:44:00,25.9,-6.0,28.26,NNW,341,0.0,4.0,24,0.00,CLR,,0.00,WeatherDisplay:10.37,2014-03-23 10:44:00,
2014-03-23 06:50:00,25.9,-6.0,28.26,NNW,341,0.0,4.0,24,0.00,CLR,,0.00,WeatherDisplay:10.37,2014-03-23 10:50:00,
2014-03-23 07:00:00,25.7,-6.2,28.26,NNW,341,0.0,4.0,24,0.00,CLR,,0.00,WeatherDisplay:10.37,2014-03-23 11:00:00,
2014-03-23 07:04:00,25.5,-6.3,28.26,NNW,340,2.0,4.0,24,0.00,CLR,,0.00,WeatherDisplay:10.37,2014-03-23 11:04:00,
2014-03-23 07:14:00,25.1,-6.7,28.26,NNW,340,0.0,3.0,24,0.00,CLR,,0.00,WeatherDisplay:10.37,2014-03-23 11:14:00,
2014-03-23 07:25:00,24.6,-7.1,28.26,NNW,340,0.0,2.0,24,0.00,CLR,,0.00,WeatherDisplay:10.37,2014-03-23 11:25:00,
2014-03-23 07:34:00,24.1,-7.6,28.26,NNW,340,0.0,0.0,24,0.00,CLR,,0.00,WeatherDisplay:10.37,2014-03-23 11:34:00,
2014-03-23 07:39:00,23.7,-7.9,28.26,NNW,340,0.0,0.0,24,0.00,CLR,,0.00,WeatherDisplay:10.37,2014-03-23 11:39:00,
2014-03-23 07:49:00,23.5,-8.0,28.26,NNW,340,0.0,0.0,24,0.00,CLR,,0.00,WeatherDisplay:10.37,2014-03-23 11:49:00,
2014-03-23 08:00:00,24.2,-7.5,28.26,NNW,340,0.0,0.0,24,0.00,CLR,,0.00,WeatherDisplay:10.37,2014-03-23 12:00:00,
2014-03-23 08:09:00,27.2,-5.8,28.26,NNW,340,0.0,0.0,23,0.00,CLR,,0.00,WeatherDisplay:10.37,2014-03-23 12:09:00,
2014-03-23 08:19:00,30.6,-2.9,28.26,NNW,340,0.0,0.0,23,0.00,CLR,,0.00,WeatherDisplay:10.37,2014-03-23 12:19:00,
2014-03-23 08:29:00,30.6,-2.8,28.26,NNW,340,0.0,0.0,23,0.00,CLR,,0.00,WeatherDisplay:10.37,2014-03-23 12:29:00,
2014-03-23 08:40:00,29.7,-3.7,28.26,NNW,340,0.0,0.0,23,0.00,CLR,,0.00,WeatherDisplay:10.37,2014-03-23 12:40:00,
2014-03-23 08:49:00,29.5,-3.8,28.26,NNW,340,0.0,3.0,23,0.00,CLR,,0.00,WeatherDisplay:10.37,2014-03-23 12:49:00,
2014-03-23 08:59:00,29.1,-4.2,28.26,NNE,13,0.0,3.0,23,0.00,CLR,,0.00,WeatherDisplay:10.37,2014-03-23 12:59:00,
2014-03-23 09:10:00,28.6,-4.6,28.26,ENE,61,0.0,3.0,23,0.00,CLR,,0.00,WeatherDisplay:10.37,2014-03-23 13:10:00,
2014-03-23 09:19:00,28.6,-4.6,28.26,NE,36,1.0,3.0,23,0.00,CLR,,0.00,WeatherDisplay:10.37,2014-03-23 13:19:00,
2014-03-23 09:29:00,28.6,-4.6,28.26,NE,35,0.0,4.0,23,0.00,CLR,,0.00,WeatherDisplay:10.37,2014-03-23 13:29:00,
2014-03-23 09:39:00,28.6,-4.6,28.26,NE,48,0.0,0.0,23,0.00,CLR,,0.00,WeatherDisplay:10.37,2014-03-23 13:39:00,
2014-03-23 09:49:00,29.2,-4.1,28.26,NE,35,0.0,3.0,23,0.00,CLR,,0.00,WeatherDisplay:10.37,2014-03-23 13:49:00,
2014-03-23 10:00:00,29.5,-3.8,28.29,ENE,63,0.0,3.0,23,0.00,CLR,,0.00,WeatherDisplay:10.37,2014-03-23 14:00:00,
2014-03-23 10:10:00,31.3,-2.3,28.29,ENE,60,0.0,9.0,23,0.00,CLR,,0.00,WeatherDisplay:10.37,2014-03-23 14:10:00,
2014-03-23 10:19:00,30.2,-3.2,28.29,NE,55,1.0,6.0,23,0.00,CLR,,0.00,WeatherDisplay:10.37,2014-03-23 14:19:00,
2014-03-23 10:30:00,30.0,-3.4,28.29,ENE,63,0.0,6.0,23,0.00,CLR,,0.00,WeatherDisplay:10.37,2014-03-23 14:30:00,
2014-03-23 10:35:00,30.0,-3.4,28.29,ENE,61,0.0,4.0,23,0.00,CLR,,0.00,WeatherDisplay:10.37,2014-03-23 14:35:00,
2014-03-23 10:45:00,29.7,-3.6,28.29,ENE,60,0.0,3.0,23,0.00,CLR,,0.00,WeatherDisplay:10.37,2014-03-23 14:45:00,
2014-03-23 10:49:00,31.2,-2.4,28.29,ENE,61,2.0,6.0,23,0.00,CLR,,0.00,WeatherDisplay:10.37,2014-03-23 14:49:00,
2014-03-23 10:54:00,32.4,-1.4,28.29,NE,55,2.0,8.0,23,0.00,CLR,,0.00,WeatherDisplay:10.37,2014-03-23 14:54:00,
2014-03-23 11:04:00,32.6,-1.2,28.29,ENE,65,0.0,8.0,23,0.00,CLR,,0.00,WeatherDisplay:10.37,2014-03-23 15:04:00,
2014-03-23 11:15:00,32.0,-1.7,28.29,ENE,65,0.0,6.0,23,0.00,CLR,,0.00,WeatherDisplay:10.37,2014-03-23 15:15:00,
2014-03-23 11:20:00,31.8,-1.8,28.29,ENE,61,0.0,3.0,23,0.00,CLR,,0.00,WeatherDisplay:10.37,2014-03-23 15:20:00,
2014-03-23 11:24:00,31.7,-1.9,28.29,NE,50,2.0,4.0,23,0.00,CLR,,0.00,WeatherDisplay:10.37,2014-03-23 15:24:00,
2014-03-23 11:30:00,31.8,-1.8,28.29,NE,55,0.0,3.0,23,0.00,CLR,,0.00,WeatherDisplay:10.37,2014-03-23 15:30:00,
2014-03-23 11:39:00,32.5,-1.2,28.29,ENE,65,1.0,6.0,23,0.00,CLR,,0.00,WeatherDisplay:10.37,2014-03-23 15:39:00,
2014-03-23 11:44:00,32.7,-1.1,28.29,ENE,70,2.0,6.0,23,0.00,CLR,,0.00,WeatherDisplay:10.37,2014-03-23 15:44:00,
2014-03-23 11:50:00,32.8,-1.0,28.29,ENE,64,3.0,6.0,23,0.00,CLR,,0.00,WeatherDisplay:10.37,2014-03-23 15:50:00,
2014-03-23 11:55:00,33.3,-0.6,28.29,ENE,65,0.0,6.0,23,0.00,CLR,,0.00,WeatherDisplay:10.37,2014-03-23 15:55:00,
2014-03-23 12:00:00,33.7,-0.3,28.32,ENE,57,2.0,5.0,23,0.00,CLR,,0.00,WeatherDisplay:10.37,2014-03-23 16:00:00,
2014-03-23 12:04:00,33.7,-1.1,28.32,NE,45,3.0,6.0,22,0.00,CLR,,0.00,WeatherDisplay:10.37,2014-03-23 16:04:00,
2014-03-23 12:09:00,33.3,-0.6,28.32,NNE,33,3.0,6.0,23,0.00,CLR,,0.00,WeatherDisplay:10.37,2014-03-23 16:09:00,
2014-03-23 12:15:00,32.9,-0.9,28.32,North,5,5.0,7.0,23,0.00,CLR,,0.00,WeatherDisplay:10.37,2014-03-23 16:15:00,
2014-03-23 12:19:00,33.3,-0.6,28.32,NE,41,0.0,8.0,23,0.00,CLR,,0.00,WeatherDisplay:10.37,2014-03-23 16:19:00,
2014-03-23 12:25:00,34.0,-1.0,28.32,NNE,32,0.0,4.0,22,0.00,CLR,,0.00,WeatherDisplay:10.37,2014-03-23 16:25:00,
2014-03-23 12:29:00,34.0,-1.0,28.32,North,355,2.0,6.0,22,0.00,CLR,,0.00,WeatherDisplay:10.37,2014-03-23 16:29:00,
2014-03-23 12:34:00,33.8,-1.1,28.32,NNE,16,6.0,8.0,22,0.00,CLR,,0.00,WeatherDisplay:10.37,2014-03-23 16:34:00,
2014-03-23 12:39:00,34.2,-0.8,28.32,NE,34,0.0,7.0,22,0.00,CLR,,0.00,WeatherDisplay:10.37,2014-03-23 16:39:00,
2014-03-23 12:44:00,33.3,-0.6,28.32,NNE,26,0.0,6.0,23,0.00,CLR,,0.00,WeatherDisplay:10.37,2014-03-23 16:44:00,
2014-03-23 12:50:00,33.8,-1.1,28.32,NE,42,2.0,6.0,22,0.00,CLR,,0.00,WeatherDisplay:10.37,2014-03-23 16:50:00,
2014-03-23 12:54:00,34.7,-0.4,28.32,NNE,26,0.0,5.0,22,0.00,CLR,,0.00,WeatherDisplay:10.37,2014-03-23 16:54:00,
2014-03-23 13:00:00,35.3,0.2,28.32,NE,39,3.0,6.0,22,0.00,CLR,,0.00,WeatherDisplay:10.37,2014-03-23 17:00:00,
2014-03-23 13:04:00,35.8,0.6,28.32,ENE,62,2.0,6.0,22,0.00,CLR,,0.00,WeatherDisplay:10.37,2014-03-23 17:04:00,
2014-03-23 13:10:00,36.3,1.0,28.32,ENE,71,1.0,4.0,22,0.00,CLR,,0.00,WeatherDisplay:10.37,2014-03-23 17:10:00,
2014-03-23 13:15:00,37.0,1.6,28.29,ENE,73,1.0,6.0,22,0.00,CLR,,0.00,WeatherDisplay:10.37,2014-03-23 17:15:00,
2014-03-23 13:19:00,36.7,1.3,28.29,ENE,70,2.0,6.0,22,0.00,CLR,,0.00,WeatherDisplay:10.37,2014-03-23 17:19:00,
2014-03-23 13:25:00,35.6,0.4,28.29,NNE,32,3.0,6.0,22,0.00,CLR,,0.00,WeatherDisplay:10.37,2014-03-23 17:25:00,
2014-03-23 13:29:00,34.9,-0.2,28.32,NNW,339,3.0,7.0,22,0.00,CLR,,0.00,WeatherDisplay:10.37,2014-03-23 17:29:00,
2014-03-23 13:35:00,34.5,-0.5,28.32,NNW,335,5.0,6.0,22,0.00,CLR,,0.00,WeatherDisplay:10.37,2014-03-23 17:35:00,
2014-03-23 13:40:00,34.3,-0.6,28.32,NNW,336,5.0,6.0,22,0.00,CLR,,0.00,WeatherDisplay:10.37,2014-03-23 17:40:00,
2014-03-23 13:45:00,34.4,-0.6,28.29,North,359,0.0,6.0,22,0.00,CLR,,0.00,WeatherDisplay:10.37,2014-03-23 17:45:00,
2014-03-23 13:49:00,35.5,0.3,28.29,North,350,6.0,8.0,22,0.00,CLR,,0.00,WeatherDisplay:10.37,2014-03-23 17:49:00,
2014-03-23 13:59:00,35.6,0.4,28.29,NNW,348,6.0,9.0,22,0.00,CLR,,0.00,WeatherDisplay:10.37,2014-03-23 17:59:00,
2014-03-23 14:10:00,34.6,-0.4,28.29,North,2,1.0,8.0,22,0.00,CLR,,0.00,WeatherDisplay:10.37,2014-03-23 18:10:00,
2014-03-23 14:20:00,35.2,0.1,28.29,NNE,25,0.0,6.0,22,0.00,CLR,,0.00,WeatherDisplay:10.37,2014-03-23 18:20:00,
2014-03-23 14:30:00,34.8,-0.2,28.26,NNW,341,6.0,8.0,22,0.00,CLR,,0.00,WeatherDisplay:10.37,2014-03-23 18:30:00,
2014-03-23 14:39:00,34.5,-0.5,28.26,North,355,2.0,9.0,22,0.00,CLR,,0.00,WeatherDisplay:10.37,2014-03-23 18:39:00,
2014-03-23 14:45:00,34.0,-1.0,28.26,NNW,346,5.0,8.0,22,0.00,CLR,,0.00,WeatherDisplay:10.37,2014-03-23 18:45:00,
2014-03-23 14:49:00,33.6,-0.3,28.26,NNW,337,3.0,8.0,23,0.00,CLR,,0.00,WeatherDisplay:10.37,2014-03-23 18:49:00,
2014-03-23 14:54:00,33.8,-1.1,28.26,NNW,329,6.0,8.0,22,0.00,CLR,,0.00,WeatherDisplay:10.37,2014-03-23 18:54:00,
2014-03-23 14:59:00,34.5,-0.5,28.26,North,5,2.0,8.0,22,0.00,CLR,,0.00,WeatherDisplay:10.37,2014-03-23 18:59:00,
2014-03-23 15:05:00,34.0,-0.9,28.26,North,355,5.0,8.0,22,0.00,CLR,,0.00,WeatherDisplay:10.37,2014-03-23 19:05:00,
2014-03-23 15:09:00,35.8,0.6,28.26,North,351,0.0,6.0,22,0.00,CLR,,0.00,WeatherDisplay:10.37,2014-03-23 19:09:00,
2014-03-23 15:15:00,35.6,0.4,28.26,North,355,5.0,8.0,22,0.00,CLR,,0.00,WeatherDisplay:10.37,2014-03-23 19:15:00,
2014-03-23 15:20:00,35.4,0.3,28.26,NW,324,6.0,8.0,22,0.00,CLR,,0.00,WeatherDisplay:10.37,2014-03-23 19:20:00,
2014-03-23 15:24:00,35.6,0.4,28.26,NW,319,6.0,12.0,22,0.00,CLR,,0.00,WeatherDisplay:10.37,2014-03-23 19:24:00,
2014-03-23 15:34:00,35.4,0.3,28.26,North,351,0.0,6.0,22,0.00,CLR,,0.00,WeatherDisplay:10.37,2014-03-23 19:34:00,
2014-03-23 15:45:00,35.6,0.4,28.26,North,349,3.0,6.0,22,0.00,CLR,,0.00,WeatherDisplay:10.37,2014-03-23 19:45:00,
2014-03-23 15:49:00,35.7,0.5,28.26,North,357,1.0,8.0,22,0.00,CLR,,0.00,WeatherDisplay:10.37,2014-03-23 19:49:00,
2014-03-23 15:54:00,35.4,0.3,28.26,NNW,339,6.0,8.0,22,0.00,CLR,,0.00,WeatherDisplay:10.37,2014-03-23 19:54:00,
2014-03-23 15:59:00,35.3,0.2,28.26,NNW,330,6.0,9.0,22,0.00,CLR,,0.00,WeatherDisplay:10.37,2014-03-23 19:59:00,
2014-03-23 16:05:00,35.6,0.4,28.26,NNW,340,2.0,9.0,22,0.00,CLR,,0.00,WeatherDisplay:10.37,2014-03-23 20:05:00,
2014-03-23 16:09:00,35.6,0.4,28.26,North,352,0.0,6.0,22,0.00,CLR,,0.00,WeatherDisplay:10.37,2014-03-23 20:09:00,
2014-03-23 16:14:00,35.1,0.0,28.26,North,7,2.0,4.0,22,0.00,CLR,,0.00,WeatherDisplay:10.37,2014-03-23 20:14:00,
2014-03-23 16:20:00,34.8,-0.3,28.26,NNW,347,6.0,9.0,22,0.00,CLR,,0.00,WeatherDisplay:10.37,2014-03-23 20:20:00,
2014-03-23 16:24:00,34.6,-0.4,28.26,North,350,2.0,6.0,22,0.00,CLR,,0.00,WeatherDisplay:10.37,2014-03-23 20:24:00,
2014-03-23 16:30:00,35.1,0.0,28.26,North,350,5.0,12.0,22,0.00,CLR,,0.00,WeatherDisplay:10.37,2014-03-23 20:30:00,
2014-03-23 16:35:00,34.5,-0.5,28.26,NNW,343,3.0,12.0,22,0.00,CLR,,0.00,WeatherDisplay:10.37,2014-03-23 20:35:00,
2014-03-23 16:44:00,34.9,-0.2,28.26,NNW,342,3.0,8.0,22,0.00,CLR,,0.00,WeatherDisplay:10.37,2014-03-23 20:44:00,
2014-03-23 16:55:00,34.8,-0.3,28.26,North,3,6.0,8.0,22,0.00,CLR,,0.00,WeatherDisplay:10.37,2014-03-23 20:55:00,
2014-03-23 17:00:00,35.2,0.1,28.26,NNW,339,6.0,13.0,22,0.00,CLR,,0.00,WeatherDisplay:10.37,2014-03-23 21:00:00,
2014-03-23 17:05:00,34.3,-0.6,28.26,NNW,342,5.0,9.0,22,0.00,CLR,,0.00,WeatherDisplay:10.37,2014-03-23 21:05:00,
2014-03-23 17:10:00,34.5,-0.5,28.26,NNW,346,5.0,8.0,22,0.00,CLR,,0.00,WeatherDisplay:10.37,2014-03-23 21:10:00,
2014-03-23 17:19:00,35.6,0.4,28.26,North,1,2.0,8.0,22,0.00,CLR,,0.00,WeatherDisplay:10.37,2014-03-23 21:19:00,
2014-03-23 17:30:00,33.4,-0.5,28.26,NNW,342,6.0,8.0,23,0.00,CLR,,0.00,WeatherDisplay:10.37,2014-03-23 21:30:00,
2014-03-23 17:34:00,33.3,-0.6,28.26,NNW,345,0.0,8.0,23,0.00,CLR,,0.00,WeatherDisplay:10.37,2014-03-23 21:34:00,
2014-03-23 17:39:00,33.3,-0.6,28.26,NNW,342,0.0,3.0,23,0.00,CLR,,0.00,WeatherDisplay:10.37,2014-03-23 21:39:00,
2014-03-23 17:45:00,33.4,-0.5,28.26,NNW,343,3.0,6.0,23,0.00,CLR,,0.00,WeatherDisplay:10.37,2014-03-23 21:45:00,
2014-03-23 17:50:00,33.5,-0.4,28.26,NNW,342,7.0,8.0,23,0.00,CLR,,0.00,WeatherDisplay:10.37,2014-03-23 21:50:00,
2014-03-23 17:54:00,32.9,-0.9,28.26,NNW,344,6.0,10.0,23,0.00,CLR,,0.00,WeatherDisplay:10.37,2014-03-23 21:54:00,
2014-03-23 18:05:00,32.3,-1.4,28.26,NNW,338,5.0,9.0,23,0.00,CLR,,0.00,WeatherDisplay:10.37,2014-03-23 22:05:00,
2014-03-23 18:14:00,32.9,-0.9,28.26,North,356,2.0,4.0,23,0.00,CLR,,0.00,WeatherDisplay:10.37,2014-03-23 22:14:00,
2014-03-23 18:24:00,31.7,-1.9,28.26,NNW,346,7.0,10.0,23,0.00,CLR,,0.00,WeatherDisplay:10.37,2014-03-23 22:24:00,
2014-03-23 18:29:00,31.9,-1.8,28.26,NNW,346,5.0,8.0,23,0.00,CLR,,0.00,WeatherDisplay:10.37,2014-03-23 22:29:00,
2014-03-23 18:35:00,32.2,-1.5,28.26,North,349,3.0,6.0,23,0.00,CLR,,0.00,WeatherDisplay:10.37,2014-03-23 22:35:00,
2014-03-23 18:40:00,32.5,-1.2,28.26,North,355,1.0,6.0,23,0.00,CLR,,0.00,WeatherDisplay:10.37,2014-03-23 22:40:00,
2014-03-23 18:49:00,32.4,-1.4,28.26,NNW,345,5.0,6.0,23,0.00,CLR,,0.00,WeatherDisplay:10.37,2014-03-23 22:49:00,
2014-03-23 18:54:00,31.8,-1.9,28.26,NNW,347,5.0,6.0,23,0.00,CLR,,0.00,WeatherDisplay:10.37,2014-03-23 22:54:00,
2014-03-23 19:04:00,30.9,-2.6,28.26,North,353,5.0,8.0,23,0.00,CLR,,0.00,WeatherDisplay:10.37,2014-03-23 23:04:00,
2014-03-23 19:15:00,30.2,-3.2,28.26,NNW,348,2.0,6.0,23,0.00,CLR,,0.00,WeatherDisplay:10.37,2014-03-23 23:15:00,
2014-03-23 19:25:00,29.8,-3.5,28.26,NNW,342,1.0,6.0,23,0.00,CLR,,0.00,WeatherDisplay:10.37,2014-03-23 23:25:00,
2014-03-23 19:29:00,29.7,-3.7,28.29,NNW,342,0.0,5.0,23,0.00,CLR,,0.00,WeatherDisplay:10.37,2014-03-23 23:29:00,
2014-03-23 19:35:00,29.5,-3.8,28.29,NNW,347,3.0,6.0,23,0.00,CLR,,0.00,WeatherDisplay:10.37,2014-03-23 23:35:00,
2014-03-23 19:39:00,29.3,-4.0,28.29,NNW,347,1.0,6.0,23,0.00,CLR,,0.00,WeatherDisplay:10.37,2014-03-23 23:39:00,
2014-03-23 19:49:00,29.1,-4.1,28.29,NNW,344,0.0,3.0,23,0.00,CLR,,0.00,WeatherDisplay:10.37,2014-03-23 23:49:00,
2014-03-23 19:59:00,28.6,-4.6,28.29,NNW,343,0.0,6.0,23,0.00,CLR,,0.00,WeatherDisplay:10.37,2014-03-23 23:59:00,
2014-03-23 20:05:00,28.5,-4.7,28.29,NNW,343,0.0,3.0,23,0.00,CLR,,0.00,WeatherDisplay:10.37,2014-03-24 00:05:00,
2014-03-23 20:14:00,28.0,-5.1,28.29,NNW,344,5.0,6.0,23,0.00,CLR,,0.00,WeatherDisplay:10.37,2014-03-24 00:14:00,
2014-03-23 20:19:00,27.9,-5.2,28.29,NNW,345,3.0,6.0,23,0.00,CLR,,0.00,WeatherDisplay:10.37,2014-03-24 00:19:00,
2014-03-23 20:29:00,27.4,-5.7,28.26,NNW,346,0.0,4.0,23,0.00,CLR,,0.00,WeatherDisplay:10.37,2014-03-24 00:29:00,
2014-03-23 20:35:00,27.1,-5.8,28.26,NNW,329,0.0,4.0,23,0.00,CLR,,0.00,WeatherDisplay:10.37,2014-03-24 00:35:00,
2014-03-23 20:45:00,26.7,-6.2,28.29,NNW,339,3.0,6.0,23,0.00,CLR,,0.00,WeatherDisplay:10.37,2014-03-24 00:45:00,
2014-03-23 20:54:00,26.1,-5.9,28.29,North,353,2.0,6.0,24,0.00,CLR,,0.00,WeatherDisplay:10.37,2014-03-24 00:54:00,
2014-03-23 21:05:00,25.7,-6.2,28.29,North,355,0.0,3.0,24,0.00,CLR,,0.00,WeatherDisplay:10.37,2014-03-24 01:05:00,
2014-03-23 21:10:00,25.4,-6.4,28.29,North,353,3.0,6.0,24,0.00,CLR,,0.00,WeatherDisplay:10.37,2014-03-24 01:10:00,
2014-03-23 21:19:00,25.3,-6.5,28.29,North,351,0.0,3.0,24,0.00,CLR,,0.00,WeatherDisplay:10.37,2014-03-24 01:19:00,
2014-03-23 21:30:00,24.9,-6.9,28.29,North,350,0.0,4.0,24,0.00,CLR,,0.00,WeatherDisplay:10.37,2014-03-24 01:30:00,
2014-03-23 21:40:00,24.4,-7.3,28.29,NNW,339,2.0,5.0,24,0.00,CLR,,0.00,WeatherDisplay:10.37,2014-03-24 01:40:00,
2014-03-23 21:49:00,24.1,-7.5,28.32,NNW,346,0.0,0.0,24,0.00,CLR,,0.00,WeatherDisplay:10.37,2014-03-24 01:49:00,
2014-03-23 22:00:00,23.5,-8.0,28.29,NNW,340,0.0,2.0,24,0.00,CLR,,0.00,WeatherDisplay:10.37,2014-03-24 02:00:00,
2014-03-23 22:09:00,23.0,-7.7,28.29,NNW,340,0.0,0.0,25,0.00,CLR,,0.00,WeatherDisplay:10.37,2014-03-24 02:09:00,
2014-03-23 22:20:00,22.6,-8.0,28.29,North,3,0.0,0.0,25,0.00,CLR,,0.00,WeatherDisplay:10.37,2014-03-24 02:20:00,
2014-03-23 22:29:00,22.0,-8.5,28.29,North,4,0.0,0.0,25,0.00,CLR,,0.00,WeatherDisplay:10.37,2014-03-24 02:29:00,
2014-03-23 22:40:00,21.7,-8.8,28.29,North,4,0.0,0.0,25,0.00,CLR,,0.00,WeatherDisplay:10.37,2014-03-24 02:40:00,
2014-03-23 22:50:00,21.6,-8.9,28.29,North,4,0.0,0.0,25,0.00,CLR,,0.00,WeatherDisplay:10.37,2014-03-24 02:50:00,
2014-03-23 22:59:00,21.9,-8.6,28.32,North,4,0.0,0.0,25,0.00,CLR,,0.00,WeatherDisplay:10.37,2014-03-24 02:59:00,
2014-03-23 23:09:00,21.6,-8.8,28.32,North,4,0.0,0.0,25,0.00,CLR,,0.00,WeatherDisplay:10.37,2014-03-24 03:09:00,
2014-03-23 23:20:00,20.8,-9.5,28.32,North,4,0.0,0.0,25,0.00,CLR,,0.00,WeatherDisplay:10.37,2014-03-24 03:20:00,
2014-03-23 23:24:00,20.5,-9.9,28.32,North,4,0.0,0.0,25,0.00,CLR,,0.00,WeatherDisplay:10.37,2014-03-24 03:24:00,
2014-03-23 23:29:00,20.1,-10.1,28.32,North,4,0.0,0.0,25,0.00,CLR,,0.00,WeatherDisplay:10.37,2014-03-24 03:29:00,
2014-03-23 23:40:00,19.6,-10.6,28.32,North,4,0.0,0.0,25,0.00,CLR,,0.00,WeatherDisplay:10.37,2014-03-24 03:40:00,
2014-03-23 23:44:00,19.4,-10.8,28.32,North,4,0.0,0.0,25,0.00,CLR,,0.00,WeatherDisplay:10.37,2014-03-24 03:44:00,
2014-03-23 23:50:00,19.2,-10.9,28.32,North,4,0.0,0.0,25,0.00,CLR,,0.00,WeatherDisplay:10.37,2014-03-24 03:50:00,
2014-03-23 23:55:00,19.2,-10.9,28.32,North,4,0.0,0.0,25,0.00,CLR,,0.00,WeatherDisplay:10.37,2014-03-24 03:55:00,